This is the latest recevied weather packets stored in our database for station/object OE6ATD-13. If no packets are shown the sender has not sent any weather packets the latest 10 day(s).
| Time | Temp. | Humidity | Pressure | Rain* | Wind** | Luminosity | Snow |
|---|---|---|---|---|---|---|---|
| 1778182527 | 11.11° C | 90% | 1015.3 hPa | 0.76 mm | - | 0 W/m² | - |
| 1778181923 | 11.11° C | 88% | 1015.1 hPa | 0.76 mm | - | 0 W/m² | - |
| 1778181319 | 11.67° C | 86% | 1015.2 hPa | 0.76 mm | - | 0 W/m² | - |
| 1778180715 | 11.67° C | 83% | 1015 hPa | 0.25 mm | - | 0 W/m² | - |
| 1778180126 | 11.67° C | 81% | 1014.8 hPa | 0.25 mm | - | 0 W/m² | - |
| 1778179521 | 12.22° C | 79% | 1014.7 hPa | 0.25 mm | - | 0 W/m² | - |
| 1778178917 | 12.22° C | 74% | 1014.5 hPa | 0 mm | - | 0 W/m² | - |
| 1778178328 | 12.22° C | 72% | 1014.3 hPa | 0 mm | - | 0 W/m² | - |
| 1778177725 | 12.78° C | 70% | 1014.2 hPa | 0 mm | - | 0 W/m² | - |
| 1778177120 | 13.33° C | 67% | 1013.8 hPa | 0 mm | - | 0 W/m² | - |
| 1778176515 | 13.89° C | 64% | 1013.3 hPa | 0 mm | - | 1 W/m² | - |
| 1778175927 | 16.11° C | 59% | 1012.9 hPa | 0 mm | - | 2 W/m² | - |
| 1778175322 | 17.22° C | 52% | 1012 hPa | 0 mm | - | 0 W/m² | - |
| 1778174718 | 19.44° C | 53% | 1011.2 hPa | 0 mm | - | 3 W/m² | - |
| 1778174129 | 20° C | 53% | 1010.4 hPa | 0 mm | - | 14 W/m² | - |
| 1778173524 | 20° C | 52% | 1010.2 hPa | 0 mm | - | 21 W/m² | - |
| 1778172920 | 20.56° C | 51% | 1009.9 hPa | 0 mm | - | 30 W/m² | - |
| 1778172316 | 20.56° C | 50% | 1009.9 hPa | 0 mm | - | 36 W/m² | - |
| 1778171727 | 21.11° C | 49% | 1009.9 hPa | 0 mm | - | 99 W/m² | - |
| 1778171123 | 22.78° C | 42% | 1009.8 hPa | 0 mm | - | 104 W/m² | - |
| 1778170519 | 22.78° C | 44% | 1009.8 hPa | 0 mm | - | 231 W/m² | - |
| 1778169930 | 21.67° C | 51% | 1009.7 hPa | 0 mm | - | 53 W/m² | - |
| 1778169326 | 22.22° C | 46% | 1009.5 hPa | 0 mm | - | 54 W/m² | - |
| 1778168721 | 23.33° C | 44% | 1009.6 hPa | 0 mm | - | 233 W/m² | - |
| 1778168117 | 23.33° C | 45% | 1009.6 hPa | 0 mm | - | 228 W/m² | - |
* Rain latest hour (hover to see other rain measurements)
** Current wind speed in m/s (hover to see current wind gust speed)